createdAt,value
2022-12-25T00:00:20.215Z,5.97
2022-12-25T00:02:49.395Z,6.04
2022-12-25T00:05:19.465Z,5.97
2022-12-25T00:07:48.259Z,5.69
2022-12-25T00:10:16.780Z,5.96
2022-12-25T00:12:45.260Z,5.94
2022-12-25T00:15:13.987Z,5.98
2022-12-25T00:17:42.420Z,5.78
2022-12-25T00:20:11.679Z,5.86
2022-12-25T00:22:41.705Z,5.93
2022-12-25T00:25:11.143Z,6.00
2022-12-25T00:27:39.620Z,6.00
2022-12-25T00:30:10.177Z,6.10
2022-12-25T00:32:38.906Z,6.03
2022-12-25T00:35:08.412Z,6.11
2022-12-25T00:37:36.867Z,5.95
2022-12-25T00:40:08.782Z,6.03
2022-12-25T00:42:37.399Z,5.83
2022-12-25T00:45:06.887Z,5.88
2022-12-25T00:47:35.374Z,5.79
2022-12-25T00:50:03.818Z,5.96
2022-12-25T00:52:32.458Z,5.92
2022-12-25T00:55:01.105Z,5.92
2022-12-25T00:57:30.932Z,5.94
2022-12-25T00:59:59.359Z,5.97
2022-12-25T01:02:27.982Z,6.00
2022-12-25T01:04:58.395Z,5.95
2022-12-25T01:07:28.085Z,5.94
2022-12-25T01:10:19.087Z,5.99
2022-12-25T01:12:49.081Z,5.97
2022-12-25T01:15:17.724Z,5.87
2022-12-25T01:17:46.516Z,5.85
2022-12-25T01:20:17.607Z,5.95
2022-12-25T01:22:46.597Z,5.95
2022-12-25T01:25:15.461Z,5.92
2022-12-25T01:27:44.069Z,6.04
2022-12-25T01:30:14.916Z,5.90
2022-12-25T01:32:43.346Z,6.08
2022-12-25T01:35:12.173Z,6.08
2022-12-25T01:37:41.605Z,6.19
2022-12-25T01:40:11.147Z,6.17
2022-12-25T01:42:39.985Z,6.16
2022-12-25T01:45:36.443Z,6.04
2022-12-25T01:48:10.622Z,6.07
2022-12-25T01:50:42.717Z,6.03
2022-12-25T01:53:11.652Z,5.92
2022-12-25T01:55:41.004Z,5.95
2022-12-25T01:58:09.703Z,5.98
2022-12-25T02:00:39.597Z,6.04
2022-12-25T02:03:08.172Z,6.14
2022-12-25T02:05:36.925Z,6.16
2022-12-25T02:08:10.460Z,6.09
2022-12-25T02:10:39.896Z,6.16
2022-12-25T02:13:09.310Z,5.99
2022-12-25T02:15:48.724Z,5.98
2022-12-25T02:18:24.539Z,6.05
2022-12-25T02:21:25.022Z,6.08
2022-12-25T02:24:23.357Z,5.89
2022-12-25T02:27:03.312Z,6.14
2022-12-25T02:29:42.756Z,6.08
2022-12-25T02:32:21.816Z,6.20
2022-12-25T02:34:54.438Z,6.21
2022-12-25T02:37:29.485Z,6.10
2022-12-25T02:40:02.989Z,6.04
2022-12-25T02:43:08.894Z,6.08
2022-12-25T02:46:03.133Z,6.09
2022-12-25T02:48:54.882Z,6.08
2022-12-25T02:51:44.754Z,6.20
2022-12-25T02:54:36.915Z,6.12
2022-12-25T02:57:27.521Z,5.91
2022-12-25T03:00:16.678Z,6.11
2022-12-25T03:03:06.903Z,6.00
2022-12-25T03:05:57.299Z,6.01
2022-12-25T03:08:30.592Z,6.15
2022-12-25T03:11:22.645Z,5.95
2022-12-25T03:13:54.926Z,6.10
2022-12-25T03:16:42.097Z,6.00
2022-12-25T03:19:25.784Z,6.04
2022-12-25T03:22:13.895Z,6.20
2022-12-25T03:24:59.787Z,5.94
2022-12-25T03:27:33.141Z,5.81
2022-12-25T03:30:19.396Z,5.99
2022-12-25T03:32:58.830Z,5.99
2022-12-25T03:35:44.271Z,6.07
2022-12-25T03:38:43.038Z,5.96
2022-12-25T03:41:38.575Z,5.98
2022-12-25T03:44:35.090Z,6.06
2022-12-25T03:47:39.394Z,6.15
2022-12-25T03:50:31.871Z,5.82
2022-12-25T03:53:23.373Z,6.18
2022-12-25T03:56:10.001Z,6.15
2022-12-25T03:58:55.735Z,5.85
2022-12-25T04:01:42.134Z,5.86
2022-12-25T04:04:28.116Z,6.00
2022-12-25T04:07:14.090Z,5.88
2022-12-25T04:10:01.205Z,5.89
2022-12-25T04:12:47.163Z,5.97
2022-12-25T04:15:33.291Z,6.11
2022-12-25T04:18:19.301Z,6.06
2022-12-25T04:21:04.999Z,6.03
2022-12-25T04:23:50.957Z,5.86
2022-12-25T04:26:38.168Z,5.88
2022-12-25T04:29:24.136Z,5.94
2022-12-25T04:32:21.605Z,5.80
2022-12-25T04:35:07.493Z,5.71
2022-12-25T04:37:35.960Z,5.84
2022-12-25T04:40:05.116Z,5.70
2022-12-25T04:42:35.151Z,5.61
2022-12-25T04:45:03.623Z,5.78
2022-12-25T04:47:32.091Z,5.75
2022-12-25T04:50:00.490Z,5.74
2022-12-25T04:52:29.168Z,5.64
2022-12-25T04:54:57.608Z,5.88
2022-12-25T04:57:26.053Z,5.65
2022-12-25T04:59:55.862Z,5.68
2022-12-25T05:02:24.435Z,5.66
2022-12-25T05:04:53.255Z,5.57
2022-12-25T05:07:21.711Z,5.69
2022-12-25T05:09:50.143Z,5.78
2022-12-25T05:12:18.542Z,5.87
2022-12-25T05:14:47.262Z,5.79
2022-12-25T05:17:17.243Z,5.65
2022-12-25T05:19:46.158Z,5.70
2022-12-25T05:22:14.671Z,5.81
2022-12-25T05:24:43.325Z,5.66
2022-12-25T05:27:11.751Z,5.77
2022-12-25T05:29:40.448Z,5.64
2022-12-25T05:32:08.904Z,5.56
2022-12-25T05:34:38.687Z,5.64
2022-12-25T05:37:09.657Z,5.60
2022-12-25T05:39:38.107Z,5.70
2022-12-25T05:42:06.612Z,5.63
2022-12-25T05:44:35.051Z,5.49
2022-12-25T05:47:03.490Z,5.52
2022-12-25T05:49:31.966Z,5.54
2022-12-25T05:52:01.984Z,5.28
2022-12-25T05:54:30.731Z,5.18
2022-12-25T05:56:59.149Z,5.05
2022-12-25T05:59:29.791Z,4.88
2022-12-25T06:01:58.381Z,4.84
2022-12-25T06:04:27.670Z,4.67
2022-12-25T06:06:56.292Z,4.88
2022-12-25T06:09:26.139Z,4.89
2022-12-25T06:11:54.537Z,4.91
2022-12-25T06:14:23.459Z,4.75
2022-12-25T06:16:53.366Z,4.80
2022-12-25T06:19:22.953Z,4.70
2022-12-25T06:21:54.416Z,4.64
2022-12-25T06:24:23.648Z,4.59
2022-12-25T06:26:53.470Z,4.66
2022-12-25T06:29:22.296Z,4.82
2022-12-25T06:31:50.798Z,4.91
2022-12-25T06:34:19.433Z,4.53
2022-12-25T06:36:47.846Z,4.69
2022-12-25T06:39:16.488Z,4.96
2022-12-25T06:41:44.885Z,4.87
2022-12-25T06:44:15.348Z,4.57
2022-12-25T06:46:43.787Z,4.68
2022-12-25T06:49:15.590Z,4.61
2022-12-25T06:51:44.246Z,4.65
2022-12-25T06:54:12.724Z,4.44
2022-12-25T06:56:41.197Z,4.42
2022-12-25T06:59:12.262Z,4.08
2022-12-25T07:01:48.070Z,4.13
2022-12-25T07:04:21.918Z,4.24
2022-12-25T07:06:50.490Z,4.31
2022-12-25T07:09:18.933Z,4.43
2022-12-25T07:11:47.649Z,4.26
2022-12-25T07:14:23.799Z,4.53
2022-12-25T07:16:54.592Z,4.58
2022-12-25T07:19:23.487Z,4.47
2022-12-25T07:21:52.228Z,4.24
2022-12-25T07:24:22.052Z,4.28
2022-12-25T07:26:51.769Z,4.44
2022-12-25T07:29:20.643Z,4.38
2022-12-25T07:31:49.474Z,4.29
2022-12-25T07:34:19.801Z,3.99
2022-12-25T07:36:48.555Z,3.90
2022-12-25T07:39:17.352Z,4.11
2022-12-25T07:41:45.909Z,4.26
2022-12-25T07:44:14.643Z,4.40
2022-12-25T07:46:43.521Z,4.37
2022-12-25T07:49:12.104Z,4.50
2022-12-25T07:51:41.923Z,4.59
2022-12-25T07:54:10.398Z,4.62
2022-12-25T07:56:38.839Z,4.74
2022-12-25T07:59:07.314Z,4.62
2022-12-25T08:01:35.815Z,4.64
2022-12-25T08:04:04.766Z,4.77
2022-12-25T08:06:35.929Z,4.73
2022-12-25T08:09:08.159Z,4.84
2022-12-25T08:11:37.173Z,5.01
2022-12-25T08:14:08.158Z,4.97
2022-12-25T08:16:40.022Z,5.20
2022-12-25T08:19:08.898Z,5.48
2022-12-25T08:21:37.467Z,5.20
2022-12-25T08:24:07.946Z,5.23
2022-12-25T08:26:36.402Z,5.34
2022-12-25T08:29:04.895Z,5.37
2022-12-25T08:31:37.250Z,5.27
2022-12-25T08:34:08.142Z,5.44
2022-12-25T08:36:36.970Z,5.37
2022-12-25T08:39:07.044Z,5.37
2022-12-25T08:41:37.054Z,5.42
2022-12-25T08:44:06.195Z,5.34
2022-12-25T08:46:35.286Z,5.45
2022-12-25T08:49:03.739Z,5.59
2022-12-25T08:51:32.389Z,5.71
2022-12-25T08:54:02.365Z,5.62
2022-12-25T08:56:32.643Z,5.19
2022-12-25T08:59:01.297Z,5.44
2022-12-25T09:01:29.938Z,5.69
2022-12-25T09:03:58.761Z,5.48
2022-12-25T09:06:27.195Z,5.55
2022-12-25T09:08:55.627Z,5.67
2022-12-25T09:11:24.543Z,5.78
2022-12-25T09:13:54.562Z,5.92
2022-12-25T09:16:24.177Z,5.86
2022-12-25T09:18:52.991Z,5.74
2022-12-25T09:21:21.657Z,5.73
2022-12-25T09:23:50.384Z,5.85
2022-12-25T09:26:20.833Z,5.87
2022-12-25T09:28:52.370Z,5.75
2022-12-25T09:31:24.331Z,6.01
2022-12-25T09:33:53.412Z,5.78
2022-12-25T09:36:23.787Z,6.00
2022-12-25T09:38:52.807Z,5.70
2022-12-25T09:41:29.323Z,5.92
2022-12-25T09:44:02.563Z,6.03
2022-12-25T09:46:42.542Z,5.83
2022-12-25T09:49:20.757Z,5.85
2022-12-25T09:51:54.502Z,5.74
2022-12-25T09:54:29.233Z,5.85
2022-12-25T09:56:57.642Z,5.98
2022-12-25T09:59:27.898Z,6.07
2022-12-25T10:02:41.633Z,5.96
2022-12-25T10:05:34.638Z,6.13
2022-12-25T10:08:11.908Z,5.88
2022-12-25T10:10:51.540Z,6.30
2022-12-25T10:13:39.017Z,6.47
2022-12-25T10:16:21.346Z,6.42
2022-12-25T10:19:12.177Z,6.64
2022-12-25T10:21:40.864Z,6.78
2022-12-25T10:24:31.781Z,6.77
2022-12-25T10:27:04.486Z,6.86
2022-12-25T10:29:36.308Z,6.92
2022-12-25T10:32:05.636Z,6.99
2022-12-25T10:34:36.427Z,7.31
2022-12-25T10:37:04.843Z,7.41
2022-12-25T10:39:33.237Z,7.60
2022-12-25T10:42:29.887Z,7.82
2022-12-25T10:45:00.940Z,7.94
2022-12-25T10:47:32.861Z,7.95
2022-12-25T10:50:09.503Z,7.99
2022-12-25T10:52:56.486Z,8.16
2022-12-25T10:55:29.130Z,8.18
2022-12-25T10:57:58.714Z,8.14
2022-12-25T11:00:30.116Z,8.24
2022-12-25T11:02:59.370Z,8.38
2022-12-25T11:05:32.120Z,8.50
2022-12-25T11:08:03.710Z,8.56
2022-12-25T11:10:34.424Z,8.57
2022-12-25T11:13:04.430Z,8.69
2022-12-25T11:15:38.817Z,8.81
2022-12-25T11:18:21.306Z,8.96
2022-12-25T11:20:53.605Z,9.01
2022-12-25T11:23:25.618Z,9.16
2022-12-25T11:25:58.442Z,9.26
2022-12-25T11:28:27.641Z,9.01
2022-12-25T11:31:01.213Z,9.07
2022-12-25T11:33:36.902Z,9.05
2022-12-25T11:36:17.387Z,9.00
2022-12-25T11:38:46.153Z,9.36
2022-12-25T11:41:20.529Z,9.61
2022-12-25T11:43:56.022Z,9.37
2022-12-25T11:46:30.815Z,9.25
2022-12-25T11:49:06.768Z,9.22
2022-12-25T11:51:40.821Z,8.83
2022-12-25T11:54:20.226Z,9.34
2022-12-25T11:56:48.664Z,9.72
2022-12-25T11:59:26.194Z,9.80
2022-12-25T12:02:01.101Z,9.70
2022-12-25T12:04:42.289Z,9.73
2022-12-25T12:07:23.045Z,9.75
2022-12-25T12:09:59.784Z,10.00
2022-12-25T12:12:34.651Z,10.15
2022-12-25T12:15:14.264Z,10.37
2022-12-25T12:17:42.735Z,10.39
2022-12-25T12:20:28.966Z,10.47
2022-12-25T12:22:59.742Z,10.48
2022-12-25T12:25:29.390Z,10.69
2022-12-25T12:28:05.147Z,10.63
2022-12-25T12:30:36.494Z,10.48
2022-12-25T12:33:07.913Z,10.44
2022-12-25T12:35:40.021Z,9.88
2022-12-25T12:38:16.148Z,10.20
2022-12-25T12:40:54.229Z,10.25
2022-12-25T12:43:36.456Z,10.46
2022-12-25T12:46:14.496Z,10.49
2022-12-25T12:48:46.326Z,10.38
2022-12-25T12:51:28.723Z,10.33
2022-12-25T12:54:20.624Z,10.31
2022-12-25T12:57:06.086Z,10.38
2022-12-25T12:59:41.241Z,10.35
2022-12-25T13:02:45.594Z,10.25
2022-12-25T13:05:22.595Z,10.31
2022-12-25T13:08:03.245Z,10.22
2022-12-25T13:10:36.260Z,10.25
2022-12-25T13:13:13.832Z,10.27
2022-12-25T13:15:42.981Z,10.31
2022-12-25T13:18:14.897Z,10.44
2022-12-25T13:20:55.092Z,10.33
2022-12-25T13:23:29.013Z,10.32
2022-12-25T13:26:01.603Z,10.42
2022-12-25T13:28:33.121Z,10.40
2022-12-25T13:31:07.530Z,10.30
2022-12-25T13:33:36.522Z,10.19
2022-12-25T13:36:07.060Z,10.23
2022-12-25T13:38:35.777Z,10.05
2022-12-25T13:41:23.297Z,9.97
2022-12-25T13:43:51.768Z,9.99
2022-12-25T13:46:28.044Z,9.91
2022-12-25T13:49:01.807Z,9.73
2022-12-25T13:51:30.242Z,9.64
2022-12-25T13:54:08.703Z,9.63
2022-12-25T13:56:38.548Z,9.51
2022-12-25T13:59:07.032Z,9.48
2022-12-25T14:01:35.608Z,9.58
2022-12-25T14:04:05.532Z,9.63
2022-12-25T14:06:34.257Z,9.59
2022-12-25T14:09:02.751Z,9.46
2022-12-25T14:11:32.658Z,9.34
2022-12-25T14:14:07.926Z,9.33
2022-12-25T14:16:36.935Z,9.46
2022-12-25T14:19:27.674Z,9.30
2022-12-25T14:22:00.991Z,9.20
2022-12-25T14:24:31.579Z,9.01
2022-12-25T14:27:05.909Z,9.02
2022-12-25T14:29:41.629Z,8.92
2022-12-25T14:32:16.639Z,8.81
2022-12-25T14:34:47.266Z,8.78
2022-12-25T14:37:20.681Z,8.65
2022-12-25T14:39:58.680Z,8.75
2022-12-25T14:42:29.947Z,8.67
2022-12-25T14:45:07.870Z,8.50
2022-12-25T14:47:52.453Z,8.53
2022-12-25T14:50:29.011Z,8.53
2022-12-25T14:52:59.142Z,8.49
2022-12-25T14:55:30.210Z,8.53
2022-12-25T14:58:04.679Z,8.31
2022-12-25T15:00:36.985Z,8.57
2022-12-25T15:03:08.779Z,8.30
2022-12-25T15:05:40.020Z,7.96
2022-12-25T15:08:24.251Z,7.74
2022-12-25T15:11:02.142Z,7.40
2022-12-25T15:13:32.501Z,7.43
2022-12-25T15:16:07.845Z,7.45
2022-12-25T15:18:39.902Z,7.39
2022-12-25T15:21:13.975Z,7.36
2022-12-25T15:23:42.424Z,7.28
2022-12-25T15:26:16.407Z,7.18
2022-12-25T15:28:44.909Z,7.15
2022-12-25T15:31:23.442Z,7.07
2022-12-25T15:33:52.320Z,6.90
2022-12-25T15:36:20.791Z,6.88
2022-12-25T15:38:49.397Z,6.75
2022-12-25T15:41:35.683Z,6.88
2022-12-25T15:44:04.961Z,7.03
2022-12-25T15:46:35.968Z,6.74
2022-12-25T15:49:05.144Z,6.91
2022-12-25T15:51:34.059Z,6.67
2022-12-25T15:54:02.699Z,6.91
2022-12-25T15:56:32.392Z,6.90
2022-12-25T15:59:00.861Z,6.78
2022-12-25T16:01:29.432Z,7.12
2022-12-25T16:03:59.522Z,6.82
2022-12-25T16:06:27.944Z,7.64
2022-12-25T16:08:56.600Z,8.00
2022-12-25T16:11:27.621Z,9.03
2022-12-25T16:13:56.247Z,8.74
2022-12-25T16:16:24.802Z,7.81
2022-12-25T16:18:53.259Z,7.51
2022-12-25T16:21:24.380Z,7.47
2022-12-25T16:23:52.832Z,8.24
2022-12-25T16:26:21.792Z,8.25
2022-12-25T16:28:50.465Z,7.87
2022-12-25T16:31:28.217Z,7.82
2022-12-25T16:33:56.879Z,7.93
2022-12-25T16:36:29.684Z,7.51
2022-12-25T16:38:58.357Z,7.65
2022-12-25T16:41:29.563Z,7.80
2022-12-25T16:43:58.221Z,7.89
2022-12-25T16:46:26.863Z,8.56
2022-12-25T16:48:56.953Z,7.79
2022-12-25T16:51:26.661Z,7.61
2022-12-25T16:53:56.856Z,7.80
2022-12-25T16:56:28.369Z,7.56
2022-12-25T16:58:59.027Z,8.42
2022-12-25T17:01:27.624Z,8.13
2022-12-25T17:04:01.727Z,8.48
2022-12-25T17:06:30.717Z,7.88
2022-12-25T17:09:02.608Z,7.96
2022-12-25T17:11:31.862Z,8.47
2022-12-25T17:14:03.404Z,8.54
2022-12-25T17:16:35.579Z,8.43
2022-12-25T17:19:08.102Z,8.50
2022-12-25T17:21:38.308Z,8.30
2022-12-25T17:24:08.945Z,8.38
2022-12-25T17:26:37.492Z,8.43
2022-12-25T17:29:06.205Z,8.76
2022-12-25T17:31:35.514Z,8.53
2022-12-25T17:34:05.108Z,8.58
2022-12-25T17:36:34.023Z,8.43
2022-12-25T17:39:03.460Z,8.40
2022-12-25T17:41:33.504Z,8.58
2022-12-25T17:44:01.944Z,8.43
2022-12-25T17:46:32.214Z,8.38
2022-12-25T17:49:01.998Z,8.29
2022-12-25T17:51:32.287Z,8.38
2022-12-25T17:54:04.100Z,8.30
2022-12-25T17:56:34.720Z,8.47
2022-12-25T17:59:06.992Z,8.55
2022-12-25T18:01:38.464Z,8.06
2022-12-25T18:04:08.316Z,8.02
2022-12-25T18:06:37.999Z,8.13
2022-12-25T18:09:08.192Z,8.11
2022-12-25T18:11:41.279Z,8.69
2022-12-25T18:14:13.735Z,8.26
2022-12-25T18:16:44.629Z,8.99
2022-12-25T18:19:14.019Z,8.80
2022-12-25T18:21:42.878Z,8.81
2022-12-25T18:24:11.743Z,8.47
2022-12-25T18:26:41.546Z,8.13
2022-12-25T18:29:09.961Z,7.87
2022-12-25T18:31:38.469Z,7.88
2022-12-25T18:34:06.914Z,7.67
2022-12-25T18:36:35.432Z,8.25
2022-12-25T18:39:04.662Z,8.08
2022-12-25T18:41:53.213Z,7.49
2022-12-25T18:44:23.039Z,7.43
2022-12-25T18:46:51.458Z,7.30
2022-12-25T18:49:20.186Z,7.55
2022-12-25T18:51:50.416Z,7.82
2022-12-25T18:54:19.351Z,7.11
2022-12-25T18:56:53.370Z,7.26
2022-12-25T18:59:23.808Z,6.96
2022-12-25T19:01:52.920Z,6.80
2022-12-25T19:04:21.553Z,7.35
2022-12-25T19:06:50.409Z,6.93
2022-12-25T19:09:18.912Z,7.02
2022-12-25T19:11:50.415Z,6.69
2022-12-25T19:14:18.929Z,6.44
2022-12-25T19:16:48.840Z,7.37
2022-12-25T19:19:17.265Z,7.96
2022-12-25T19:21:47.766Z,8.21
2022-12-25T19:24:16.409Z,8.22
2022-12-25T19:26:44.851Z,8.07
2022-12-25T19:29:13.584Z,7.80
2022-12-25T19:31:43.028Z,7.23
2022-12-25T19:34:13.143Z,7.70
2022-12-25T19:36:41.888Z,8.44
2022-12-25T19:39:12.523Z,8.00
2022-12-25T19:41:41.213Z,7.98
2022-12-25T19:44:09.831Z,7.74
2022-12-25T19:46:40.955Z,8.23
2022-12-25T19:49:14.769Z,8.32
2022-12-25T19:51:46.215Z,8.17
2022-12-25T19:54:16.768Z,8.33
2022-12-25T19:56:45.209Z,7.79
2022-12-25T19:59:14.777Z,7.65
2022-12-25T20:01:43.815Z,7.80
2022-12-25T20:04:13.962Z,6.98
2022-12-25T20:06:43.536Z,7.05
2022-12-25T20:09:15.576Z,7.40
2022-12-25T20:11:44.355Z,6.91
2022-12-25T20:14:16.396Z,6.76
2022-12-25T20:16:46.240Z,7.39
2022-12-25T20:19:16.875Z,6.94
2022-12-25T20:21:45.880Z,7.35
2022-12-25T20:24:14.323Z,7.01
2022-12-25T20:26:47.510Z,6.78
2022-12-25T20:29:16.280Z,6.50
2022-12-25T20:31:44.763Z,6.77
2022-12-25T20:34:15.081Z,6.65
2022-12-25T20:36:45.336Z,6.57
2022-12-25T20:39:14.504Z,6.47
2022-12-25T20:41:43.062Z,7.01
2022-12-25T20:44:13.242Z,6.82
2022-12-25T20:46:41.944Z,7.04
2022-12-25T20:49:10.781Z,6.90
2022-12-25T20:51:41.624Z,6.50
2022-12-25T20:54:12.744Z,6.15
2022-12-25T20:56:41.748Z,6.00
2022-12-25T20:59:11.839Z,6.25
2022-12-25T21:01:40.635Z,6.08
2022-12-25T21:04:14.462Z,5.68
2022-12-25T21:06:46.121Z,5.87
2022-12-25T21:09:14.628Z,5.71
2022-12-25T21:11:43.346Z,5.66
2022-12-25T21:14:12.159Z,5.51
2022-12-25T21:16:40.628Z,5.28
2022-12-25T21:19:09.561Z,5.22
2022-12-25T21:21:42.634Z,5.43
2022-12-25T21:24:12.626Z,4.93
2022-12-25T21:26:47.619Z,5.16
2022-12-25T21:29:17.021Z,5.39
2022-12-25T21:32:02.901Z,5.17
2022-12-25T21:34:34.216Z,5.02
2022-12-25T21:37:02.656Z,4.89
2022-12-25T21:39:32.517Z,4.71
2022-12-25T21:42:01.138Z,4.76
2022-12-25T21:44:29.524Z,4.94
2022-12-25T21:46:58.411Z,4.93
2022-12-25T21:49:44.098Z,5.00
2022-12-25T21:52:12.762Z,4.86
2022-12-25T21:54:42.685Z,4.63
2022-12-25T21:57:11.100Z,4.80
2022-12-25T21:59:39.797Z,4.54
2022-12-25T22:02:11.428Z,4.66
2022-12-25T22:04:40.423Z,5.30
2022-12-25T22:07:17.889Z,4.81
2022-12-25T22:09:49.620Z,5.24
2022-12-25T22:12:37.445Z,4.93
2022-12-25T22:15:09.533Z,4.56
2022-12-25T22:17:58.200Z,4.55
2022-12-25T22:20:30.166Z,4.85
2022-12-25T22:22:59.459Z,4.78
2022-12-25T22:25:29.304Z,4.57
2022-12-25T22:27:58.690Z,4.63
2022-12-25T22:30:29.519Z,4.62
2022-12-25T22:32:58.306Z,4.69
2022-12-25T22:35:26.986Z,4.66
2022-12-25T22:37:55.933Z,4.55
2022-12-25T22:40:24.356Z,4.72
2022-12-25T22:42:57.098Z,4.62
2022-12-25T22:45:25.809Z,5.17
2022-12-25T22:47:54.469Z,4.65
2022-12-25T22:50:23.372Z,4.83
2022-12-25T22:52:51.774Z,5.39
2022-12-25T22:55:20.761Z,5.00
2022-12-25T22:57:50.614Z,4.82
2022-12-25T23:00:20.694Z,4.87
2022-12-25T23:02:49.524Z,5.87
2022-12-25T23:05:18.477Z,5.43
2022-12-25T23:07:47.441Z,5.32
2022-12-25T23:10:15.871Z,6.57
2022-12-25T23:13:01.627Z,5.87
2022-12-25T23:15:32.544Z,5.78
2022-12-25T23:18:18.289Z,5.59
2022-12-25T23:21:04.102Z,5.89
2022-12-25T23:23:49.992Z,5.77
2022-12-25T23:26:20.121Z,7.22
2022-12-25T23:29:05.979Z,6.38
2022-12-25T23:31:39.875Z,5.91
2022-12-25T23:34:09.868Z,6.33
2022-12-25T23:36:38.542Z,6.24
2022-12-25T23:39:10.011Z,6.52
2022-12-25T23:41:39.695Z,6.31
2022-12-25T23:44:08.448Z,6.44
2022-12-25T23:46:39.108Z,6.04
2022-12-25T23:49:08.398Z,6.43
2022-12-25T23:51:37.398Z,7.31
2022-12-25T23:54:06.602Z,7.54
2022-12-25T23:56:35.371Z,7.48
2022-12-25T23:59:03.882Z,6.97
